South Padre Island, Texas
Current Conditions -  °F | °C
As of 9:55 PM on Wednesday 22 Oct 2014 (Local Time) from KSPL Reporting Station
Scattered Clouds Scattered Clouds  
Wind Chill: 79°   Ceiling: Unl
Heat Index: 81°   Visibility: NA
Dew Point: 68°   Wind: 15mph
Humidity: 69%   Direction: 60°ENE
Pressure: 30.02"   Gusts: 20mph
Location:  26.1°N, 97.17°W
Report Text: KSPL 230255Z AUTO 06013G17KT SCT028 26/20 A3002 RMK AO1 VSBY 1/2V5
Loading
Personal Weather Stations






























Interactive Weather Map
Tropical Storm Tracking
New forecast layout! Learn more

10-Day Weather Forecast

Advertisements
Track Severe Weather on mobile